sensor_id;sensor_type;location;lat;lon;timestamp;pressure;altitude;pressure_sealevel;temperature;humidity
81352;BME280;70809;52.184;13.422;2023-11-21T00:00:35;100504.00;;;7.92;100.00
81352;BME280;70809;52.184;13.422;2023-11-21T00:01:37;100505.16;;;7.64;100.00
81352;BME280;70809;52.184;13.422;2023-11-21T00:02:39;100507.06;;;7.73;100.00
81352;BME280;70809;52.184;13.422;2023-11-21T00:03:41;100506.28;;;7.76;100.00
81352;BME280;70809;52.184;13.422;2023-11-21T00:04:44;100502.69;;;7.73;100.00
81352;BME280;70809;52.184;13.422;2023-11-21T00:05:46;100502.53;;;7.64;100.00
81352;BME280;70809;52.184;13.422;2023-11-21T00:06:48;100502.69;;;7.72;100.00
81352;BME280;70809;52.184;13.422;2023-11-21T00:07:50;100502.78;;;7.77;100.00
81352;BME280;70809;52.184;13.422;2023-11-21T00:08:52;100511.31;;;7.66;100.00
81352;BME280;70809;52.184;13.422;2023-11-21T00:09:54;100500.66;;;7.60;100.00
81352;BME280;70809;52.184;13.422;2023-11-21T00:10:55;100509.41;;;7.59;100.00
81352;BME280;70809;52.184;13.422;2023-11-21T00:11:57;100510.16;;;7.54;100.00
81352;BME280;70809;52.184;13.422;2023-11-21T00:12:59;100509.34;;;7.56;100.00
81352;BME280;70809;52.184;13.422;2023-11-21T00:14:01;100509.16;;;7.47;100.00
81352;BME280;70809;52.184;13.422;2023-11-21T00:15:03;100507.66;;;7.58;100.00
81352;BME280;70809;52.184;13.422;2023-11-21T00:16:06;100515.72;;;7.67;100.00
81352;BME280;70809;52.184;13.422;2023-11-21T00:17:08;100516.44;;;7.60;100.00
81352;BME280;70809;52.184;13.422;2023-11-21T00:18:10;100516.66;;;7.69;100.00
81352;BME280;70809;52.184;13.422;2023-11-21T00:19:12;100522.44;;;7.53;100.00
81352;BME280;70809;52.184;13.422;2023-11-21T00:20:15;100520.81;;;7.60;100.00
81352;BME280;70809;52.184;13.422;2023-11-21T00:21:17;100523.19;;;7.48;100.00
81352;BME280;70809;52.184;13.422;2023-11-21T00:22:19;100519.63;;;7.45;100.00
81352;BME280;70809;52.184;13.422;2023-11-21T00:23:21;100517.03;;;7.47;100.00
81352;BME280;70809;52.184;13.422;2023-11-21T00:24:28;100519.72;;;7.50;100.00
81352;BME280;70809;52.184;13.422;2023-11-21T00:25:29;100518.34;;;7.67;100.00
81352;BME280;70809;52.184;13.422;2023-11-21T00:26:31;100513.94;;;7.66;100.00
81352;BME280;70809;52.184;13.422;2023-11-21T00:27:36;100516.44;;;7.60;100.00
81352;BME280;70809;52.184;13.422;2023-11-21T00:28:37;100523.31;;;7.54;100.00
81352;BME280;70809;52.184;13.422;2023-11-21T00:29:39;100514.44;;;7.49;100.00
81352;BME280;70809;52.184;13.422;2023-11-21T00:30:41;100514.69;;;7.61;100.00
81352;BME280;70809;52.184;13.422;2023-11-21T00:31:43;100518.09;;;7.57;100.00
81352;BME280;70809;52.184;13.422;2023-11-21T00:32:46;100510.16;;;7.54;100.00
81352;BME280;70809;52.184;13.422;2023-11-21T00:33:48;100517.06;;;7.49;100.00
81352;BME280;70809;52.184;13.422;2023-11-21T00:34:50;100518.09;;;7.55;100.00
81352;BME280;70809;52.184;13.422;2023-11-21T00:35:53;100517.47;;;7.67;100.00
81352;BME280;70809;52.184;13.422;2023-11-21T00:36:57;100517.09;;;7.50;100.00
81352;BME280;70809;52.184;13.422;2023-11-21T00:37:59;100512.69;;;7.49;100.00
81352;BME280;70809;52.184;13.422;2023-11-21T00:39:01;100525.97;;;7.55;100.00
81352;BME280;70809;52.184;13.422;2023-11-21T00:40:03;100511.31;;;7.66;100.00
81352;BME280;70809;52.184;13.422;2023-11-21T00:41:06;100512.91;;;7.58;100.00
81352;BME280;70809;52.184;13.422;2023-11-21T00:42:08;100515.34;;;7.51;100.00
81352;BME280;70809;52.184;13.422;2023-11-21T00:43:10;100516.28;;;7.53;100.00
81352;BME280;70809;52.184;13.422;2023-11-21T00:44:12;100509.47;;;7.62;100.00
81352;BME280;70809;52.184;13.422;2023-11-21T00:45:14;100515.66;;;7.64;100.00
81352;BME280;70809;52.184;13.422;2023-11-21T00:46:16;100520.94;;;7.64;100.00
81352;BME280;70809;52.184;13.422;2023-11-21T00:47:18;100512.19;;;7.67;100.00
81352;BME280;70809;52.184;13.422;2023-11-21T00:48:20;100521.56;;;7.54;100.00
81352;BME280;70809;52.184;13.422;2023-11-21T00:49:22;100526.00;;;7.57;100.00
81352;BME280;70809;52.184;13.422;2023-11-21T00:50:24;100527.81;;;7.59;100.00
81352;BME280;70809;52.184;13.422;2023-11-21T00:51:27;100519.94;;;7.59;100.00
81352;BME280;70809;52.184;13.422;2023-11-21T00:52:28;100518.91;;;7.53;100.00
81352;BME280;70809;52.184;13.422;2023-11-21T00:53:32;100524.22;;;7.56;100.00
81352;BME280;70809;52.184;13.422;2023-11-21T00:54:33;100524.16;;;7.53;100.00
81352;BME280;70809;52.184;13.422;2023-11-21T00:55:36;100526.00;;;7.57;100.00
81352;BME280;70809;52.184;13.422;2023-11-21T00:56:38;100518.22;;;7.61;100.00
81352;BME280;70809;52.184;13.422;2023-11-21T00:57:40;100520.69;;;7.54;100.00
81352;BME280;70809;52.184;13.422;2023-11-21T00:58:41;100526.75;;;7.51;100.00
81352;BME280;70809;52.184;13.422;2023-11-21T00:59:43;100532.91;;;7.52;100.00
81352;BME280;70809;52.184;13.422;2023-11-21T01:00:45;100529.69;;;7.65;100.00
81352;BME280;70809;52.184;13.422;2023-11-21T01:01:47;100520.16;;;7.68;100.00
81352;BME280;70809;52.184;13.422;2023-11-21T01:02:49;100523.47;;;7.61;100.00
81352;BME280;70809;52.184;13.422;2023-11-21T01:03:51;100523.59;;;7.67;100.00
81352;BME280;70809;52.184;13.422;2023-11-21T01:04:53;100525.19;;;7.59;100.00
81352;BME280;70809;52.184;13.422;2023-11-21T01:05:55;100529.81;;;7.69;100.00
81352;BME280;70809;52.184;13.422;2023-11-21T01:07:01;100532.00;;;7.51;100.00
81352;BME280;70809;52.184;13.422;2023-11-21T01:08:04;100527.59;;;7.50;100.00
81352;BME280;70809;52.184;13.422;2023-11-21T01:09:06;100530.34;;;7.55;100.00
81352;BME280;70809;52.184;13.422;2023-11-21T01:10:08;100528.69;;;7.60;100.00
81352;BME280;70809;52.184;13.422;2023-11-21T01:11:11;100530.44;;;7.58;100.00
81352;BME280;70809;52.184;13.422;2023-11-21T01:12:12;100528.41;;;7.46;100.00
81352;BME280;70809;52.184;13.422;2023-11-21T01:13:14;100531.22;;;7.55;100.00
81352;BME280;70809;52.184;13.422;2023-11-21T01:14:16;100528.72;;;7.61;100.00
81352;BME280;70809;52.184;13.422;2023-11-21T01:15:18;100529.44;;;7.54;100.00
81352;BME280;70809;52.184;13.422;2023-11-21T01:16:23;100539.00;;;7.51;100.00
81352;BME280;70809;52.184;13.422;2023-11-21T01:17:25;100533.81;;;7.52;100.00
81352;BME280;70809;52.184;13.422;2023-11-21T01:18:27;100538.06;;;7.47;100.00
81352;BME280;70809;52.184;13.422;2023-11-21T01:19:29;100533.66;;;7.46;100.00
81352;BME280;70809;52.184;13.422;2023-11-21T01:20:31;100534.56;;;7.48;100.00
81352;BME280;70809;52.184;13.422;2023-11-21T01:21:33;100537.22;;;7.48;100.00
81352;BME280;70809;52.184;13.422;2023-11-21T01:22:36;100540.59;;;7.44;100.00
81352;BME280;70809;52.184;13.422;2023-11-21T01:23:38;100541.56;;;7.46;100.00
81352;BME280;70809;52.184;13.422;2023-11-21T01:24:40;100539.06;;;7.52;100.00
81352;BME280;70809;52.184;13.422;2023-11-21T01:25:42;100537.03;;;7.40;100.00
81352;BME280;70809;52.184;13.422;2023-11-21T01:26:44;100541.47;;;7.43;100.00
81352;BME280;70809;52.184;13.422;2023-11-21T01:27:46;100537.09;;;7.43;100.00
81352;BME280;70809;52.184;13.422;2023-11-21T01:28:47;100541.44;;;7.41;100.00
81352;BME280;70809;52.184;13.422;2023-11-21T01:29:49;100550.13;;;7.39;100.00
81352;BME280;70809;52.184;13.422;2023-11-21T01:30:51;100544.03;;;7.40;100.00
81352;BME280;70809;52.184;13.422;2023-11-21T01:31:53;100539.59;;;7.39;100.00
81352;BME280;70809;52.184;13.422;2023-11-21T01:32:56;100540.47;;;7.38;100.00
81352;BME280;70809;52.184;13.422;2023-11-21T01:33:58;100543.94;;;7.37;100.00
81352;BME280;70809;52.184;13.422;2023-11-21T01:35:00;100551.91;;;7.40;100.00
81352;BME280;70809;52.184;13.422;2023-11-21T01:36:02;100548.59;;;7.49;100.00
81352;BME280;70809;52.184;13.422;2023-11-21T01:37:05;100542.47;;;7.48;100.00
81352;BME280;70809;52.184;13.422;2023-11-21T01:38:08;100544.13;;;7.44;100.00
81352;BME280;70809;52.184;13.422;2023-11-21T01:39:10;100549.56;;;7.52;100.00
81352;BME280;70809;52.184;13.422;2023-11-21T01:40:12;100543.31;;;7.47;100.00
81352;BME280;70809;52.184;13.422;2023-11-21T01:41:14;100547.72;;;7.48;100.00
81352;BME280;70809;52.184;13.422;2023-11-21T01:42:16;100545.38;;;7.62;100.00
81352;BME280;70809;52.184;13.422;2023-11-21T01:43:18;100555.88;;;7.60;100.00
81352;BME280;70809;52.184;13.422;2023-11-21T01:44:19;100554.97;;;7.58;100.00
81352;BME280;70809;52.184;13.422;2023-11-21T01:45:21;100553.38;;;7.66;100.00
81352;BME280;70809;52.184;13.422;2023-11-21T01:46:23;100553.38;;;7.66;100.00
81352;BME280;70809;52.184;13.422;2023-11-21T01:47:25;100554.28;;;7.67;100.00
81352;BME280;70809;52.184;13.422;2023-11-21T01:48:27;100557.72;;;7.63;100.00
81352;BME280;70809;52.184;13.422;2023-11-21T01:49:29;100555.84;;;7.59;100.00
81352;BME280;70809;52.184;13.422;2023-11-21T01:50:32;100557.84;;;7.69;100.00
81352;BME280;70809;52.184;13.422;2023-11-21T01:51:34;100551.25;;;7.50;100.00
81352;BME280;70809;52.184;13.422;2023-11-21T01:52:37;100557.34;;;7.48;100.00
81352;BME280;70809;52.184;13.422;2023-11-21T01:53:41;100555.78;;;7.56;100.00
81352;BME280;70809;52.184;13.422;2023-11-21T01:54:44;100564.47;;;7.52;100.00
81352;BME280;70809;52.184;13.422;2023-11-21T01:55:46;100560.97;;;7.53;100.00
81352;BME280;70809;52.184;13.422;2023-11-21T01:56:48;100557.72;;;7.64;100.00
81352;BME280;70809;52.184;13.422;2023-11-21T01:57:50;100556.28;;;7.79;100.00
81352;BME280;70809;52.184;13.422;2023-11-21T01:58:52;100565.03;;;7.78;100.00
81352;BME280;70809;52.184;13.422;2023-11-21T01:59:54;100567.53;;;7.71;100.00
81352;BME280;70809;52.184;13.422;2023-11-21T02:00:56;100574.38;;;7.63;100.00
81352;BME280;70809;52.184;13.422;2023-11-21T02:01:58;100574.50;;;7.69;100.00
81352;BME280;70809;52.184;13.422;2023-11-21T02:03:00;100574.78;;;7.83;100.00
81352;BME280;70809;52.184;13.422;2023-11-21T02:04:02;100578.19;;;7.79;100.00
81352;BME280;70809;52.184;13.422;2023-11-21T02:05:05;100569.84;;;7.58;100.00
81352;BME280;70809;52.184;13.422;2023-11-21T02:06:07;100576.41;;;7.39;100.00
81352;BME280;70809;52.184;13.422;2023-11-21T02:07:09;100579.03;;;7.39;100.00
81352;BME280;70809;52.184;13.422;2023-11-21T02:08:11;100579.09;;;7.40;100.00
81352;BME280;70809;52.184;13.422;2023-11-21T02:09:14;100586.13;;;7.41;100.00
81352;BME280;70809;52.184;13.422;2023-11-21T02:10:16;100579.69;;;7.29;100.00
81352;BME280;70809;52.184;13.422;2023-11-21T02:11:19;100586.66;;;7.28;100.00
81352;BME280;70809;52.184;13.422;2023-11-21T02:12:21;100590.06;;;7.24;100.00
81352;BME280;70809;52.184;13.422;2023-11-21T02:13:23;100586.66;;;7.28;100.00
81352;BME280;70809;52.184;13.422;2023-11-21T02:14:25;100586.63;;;7.27;100.00
81352;BME280;70809;52.184;13.422;2023-11-21T02:15:27;100590.19;;;7.29;100.00
81352;BME280;70809;52.184;13.422;2023-11-21T02:16:29;100587.66;;;7.33;100.00
81352;BME280;70809;52.184;13.422;2023-11-21T02:17:33;100595.69;;;7.39;100.00
81352;BME280;70809;52.184;13.422;2023-11-21T02:18:36;100592.84;;;7.30;100.00
81352;BME280;70809;52.184;13.422;2023-11-21T02:19:38;100596.38;;;7.32;100.00
81352;BME280;70809;52.184;13.422;2023-11-21T02:20:40;100596.28;;;7.28;100.00
81352;BME280;70809;52.184;13.422;2023-11-21T02:21:42;100593.66;;;7.28;100.00
81352;BME280;70809;52.184;13.422;2023-11-21T02:22:49;100604.84;;;7.21;100.00
81352;BME280;70809;52.184;13.422;2023-11-21T02:23:54;100604.56;;;7.08;100.00
81352;BME280;70809;52.184;13.422;2023-11-21T02:24:56;100614.06;;;7.03;100.00
81352;BME280;70809;52.184;13.422;2023-11-21T02:25:57;100611.59;;;7.09;100.00
81352;BME280;70809;52.184;13.422;2023-11-21T02:26:59;100610.63;;;7.06;100.00
81352;BME280;70809;52.184;13.422;2023-11-21T02:28:02;100614.38;;;7.15;100.00
81352;BME280;70809;52.184;13.422;2023-11-21T02:29:05;100611.44;;;7.03;100.00
81352;BME280;70809;52.184;13.422;2023-11-21T02:30:07;100612.00;;;6.91;100.00
81352;BME280;70809;52.184;13.422;2023-11-21T02:31:09;100618.78;;;6.83;100.00
81352;BME280;70809;52.184;13.422;2023-11-21T02:32:11;100612.00;;;6.91;100.00
81352;BME280;70809;52.184;13.422;2023-11-21T02:33:13;100617.25;;;6.91;100.00
81352;BME280;70809;52.184;13.422;2023-11-21T02:34:15;100617.34;;;6.95;100.00
81352;BME280;70809;52.184;13.422;2023-11-21T02:35:17;100617.34;;;6.95;100.00
81352;BME280;70809;52.184;13.422;2023-11-21T02:36:19;100612.88;;;6.92;100.00
81352;BME280;70809;52.184;13.422;2023-11-21T02:37:21;100619.84;;;6.90;100.00
81352;BME280;70809;52.184;13.422;2023-11-21T02:38:24;100627.88;;;6.96;100.00
81352;BME280;70809;52.184;13.422;2023-11-21T02:39:26;100624.53;;;7.02;100.00
81352;BME280;70809;52.184;13.422;2023-11-21T02:40:28;100623.84;;;7.10;100.00
81352;BME280;70809;52.184;13.422;2023-11-21T02:41:30;100619.75;;;7.20;100.00
81352;BME280;70809;52.184;13.422;2023-11-21T02:42:33;100615.41;;;7.22;100.00
81352;BME280;70809;52.184;13.422;2023-11-21T02:43:35;100624.00;;;7.16;100.00
81352;BME280;70809;52.184;13.422;2023-11-21T02:44:37;100619.44;;;7.08;100.00
81352;BME280;70809;52.184;13.422;2023-11-21T02:45:39;100627.03;;;6.97;100.00
81352;BME280;70809;52.184;13.422;2023-11-21T02:46:41;100626.03;;;6.93;100.00
81352;BME280;70809;52.184;13.422;2023-11-21T02:47:43;100629.13;;;6.77;100.00
81352;BME280;70809;52.184;13.422;2023-11-21T02:48:45;100631.81;;;6.80;100.00
81352;BME280;70809;52.184;13.422;2023-11-21T02:49:47;100633.72;;;6.86;100.00
81352;BME280;70809;52.184;13.422;2023-11-21T02:50:49;100628.16;;;6.74;100.00
81352;BME280;70809;52.184;13.422;2023-11-21T02:51:50;100634.31;;;6.76;100.00
81352;BME280;70809;52.184;13.422;2023-11-21T02:52:53;100629.72;;;6.67;100.00
81352;BME280;70809;52.184;13.422;2023-11-21T02:53:56;100634.75;;;6.59;100.00
81352;BME280;70809;52.184;13.422;2023-11-21T02:54:58;100634.66;;;6.56;100.00
81352;BME280;70809;52.184;13.422;2023-11-21T02:56:00;100640.66;;;6.52;100.00
81352;BME280;70809;52.184;13.422;2023-11-21T02:57:02;100637.00;;;6.46;100.00
81352;BME280;70809;52.184;13.422;2023-11-21T02:58:04;100635.91;;;6.37;100.00
81352;BME280;70809;52.184;13.422;2023-11-21T02:59:06;100631.66;;;6.43;100.00
81352;BME280;70809;52.184;13.422;2023-11-21T03:00:09;100645.72;;;6.45;100.00
81352;BME280;70809;52.184;13.422;2023-11-21T03:01:11;100638.72;;;6.45;100.00
81352;BME280;70809;52.184;13.422;2023-11-21T03:02:12;100644.72;;;6.41;100.00
81352;BME280;70809;52.184;13.422;2023-11-21T03:03:14;100646.72;;;6.50;100.00
81352;BME280;70809;52.184;13.422;2023-11-21T03:04:16;100639.81;;;6.53;100.00
81352;BME280;70809;52.184;13.422;2023-11-21T03:05:18;100648.38;;;6.46;100.00
81352;BME280;70809;52.184;13.422;2023-11-21T03:06:21;100636.00;;;6.42;100.00
81352;BME280;70809;52.184;13.422;2023-11-21T03:07:23;100644.00;;;6.47;100.00
81352;BME280;70809;52.184;13.422;2023-11-21T03:08:26;100643.94;;;6.44;100.00
81352;BME280;70809;52.184;13.422;2023-11-21T03:09:29;100641.44;;;6.48;100.00
81352;BME280;70809;52.184;13.422;2023-11-21T03:10:33;100641.34;;;6.45;100.00
81352;BME280;70809;52.184;13.422;2023-11-21T03:11:35;100645.00;;;6.50;100.00
81352;BME280;70809;52.184;13.422;2023-11-21T03:12:37;100651.31;;;6.57;100.00
81352;BME280;70809;52.184;13.422;2023-11-21T03:13:39;100648.72;;;6.58;100.00
81352;BME280;70809;52.184;13.422;2023-11-21T03:14:44;100643.63;;;6.64;100.00
81352;BME280;70809;52.184;13.422;2023-11-21T03:15:46;100652.59;;;6.71;100.00
81352;BME280;70809;52.184;13.422;2023-11-21T03:16:48;100647.09;;;6.63;100.00
81352;BME280;70809;52.184;13.422;2023-11-21T03:17:50;100646.19;;;6.61;100.00
81352;BME280;70809;52.184;13.422;2023-11-21T03:18:52;100645.84;;;6.49;100.00
81352;BME280;70809;52.184;13.422;2023-11-21T03:19:54;100645.00;;;6.50;100.00
81352;BME280;70809;52.184;13.422;2023-11-21T03:20:56;100646.56;;;6.44;100.00
81352;BME280;70809;52.184;13.422;2023-11-21T03:21:58;100651.97;;;6.50;100.00
81352;BME280;70809;52.184;13.422;2023-11-21T03:23:00;100648.38;;;6.46;100.00
81352;BME280;70809;52.184;13.422;2023-11-21T03:24:02;100652.38;;;6.33;100.00
81352;BME280;70809;52.184;13.422;2023-11-21T03:25:06;100646.09;;;6.28;100.00
81352;BME280;70809;52.184;13.422;2023-11-21T03:26:11;100653.25;;;6.34;100.00
81352;BME280;70809;52.184;13.422;2023-11-21T03:27:13;100652.72;;;6.46;100.00
81352;BME280;70809;52.184;13.422;2023-11-21T03:28:15;100658.88;;;6.46;100.00
81352;BME280;70809;52.184;13.422;2023-11-21T03:29:19;100659.50;;;6.37;100.00
81352;BME280;70809;52.184;13.422;2023-11-21T03:30:21;100653.91;;;6.25;100.00
81352;BME280;70809;52.184;13.422;2023-11-21T03:31:23;100657.34;;;6.24;100.00
81352;BME280;70809;52.184;13.422;2023-11-21T03:32:25;100662.56;;;6.23;100.00
81352;BME280;70809;52.184;13.422;2023-11-21T03:33:27;100663.53;;;6.26;100.00
81352;BME280;70809;52.184;13.422;2023-11-21T03:34:29;100661.00;;;6.29;100.00
81352;BME280;70809;52.184;13.422;2023-11-21T03:35:31;100669.94;;;6.36;100.00
81352;BME280;70809;52.184;13.422;2023-11-21T03:36:33;100674.22;;;6.32;100.00
81352;BME280;70809;52.184;13.422;2023-11-21T03:37:35;100669.00;;;6.34;100.00
81352;BME280;70809;52.184;13.422;2023-11-21T03:38:37;100682.16;;;6.35;100.00
81352;BME280;70809;52.184;13.422;2023-11-21T03:39:39;100679.53;;;6.35;100.00
81352;BME280;70809;52.184;13.422;2023-11-21T03:40:42;100677.44;;;6.24;100.00
81352;BME280;70809;52.184;13.422;2023-11-21T03:41:44;100666.88;;;6.21;100.00
81352;BME280;70809;52.184;13.422;2023-11-21T03:42:46;100676.53;;;6.22;100.00
81352;BME280;70809;52.184;13.422;2023-11-21T03:43:47;100674.78;;;6.22;100.00
81352;BME280;70809;52.184;13.422;2023-11-21T03:44:49;100684.34;;;6.20;100.00
81352;BME280;70809;52.184;13.422;2023-11-21T03:45:51;100683.22;;;6.12;100.00
81352;BME280;70809;52.184;13.422;2023-11-21T03:46:53;100687.03;;;6.23;100.00
81352;BME280;70809;52.184;13.422;2023-11-21T03:47:55;100683.47;;;6.20;100.00
81352;BME280;70809;52.184;13.422;2023-11-21T03:48:57;100686.34;;;6.00;100.00
81352;BME280;70809;52.184;13.422;2023-11-21T03:49:59;100680.94;;;5.96;100.00
81352;BME280;70809;52.184;13.422;2023-11-21T03:51:01;100685.78;;;5.83;100.00
81352;BME280;70809;52.184;13.422;2023-11-21T03:52:03;100689.44;;;5.89;100.00
81352;BME280;70809;52.184;13.422;2023-11-21T03:53:06;100690.31;;;5.89;100.00
81352;BME280;70809;52.184;13.422;2023-11-21T03:54:08;100693.44;;;5.77;100.00
81352;BME280;70809;52.184;13.422;2023-11-21T03:55:16;100702.50;;;5.60;100.00
81352;BME280;70809;52.184;13.422;2023-11-21T03:56:19;100696.28;;;5.56;100.00
81352;BME280;70809;52.184;13.422;2023-11-21T03:57:21;100704.75;;;5.49;100.00
81352;BME280;70809;52.184;13.422;2023-11-21T03:58:23;100701.63;;;5.34;100.00
81352;BME280;70809;52.184;13.422;2023-11-21T03:59:25;100707.97;;;5.41;100.00
81352;BME280;70809;52.184;13.422;2023-11-21T04:00:27;100705.41;;;5.42;100.00
81352;BME280;70809;52.184;13.422;2023-11-21T04:01:29;100707.47;;;5.27;100.00
81352;BME280;70809;52.184;13.422;2023-11-21T04:02:31;100708.13;;;5.20;100.00
81352;BME280;70809;52.184;13.422;2023-11-21T04:03:33;100708.13;;;5.20;100.00
81352;BME280;70809;52.184;13.422;2023-11-21T04:04:35;100703.28;;;5.06;100.00
81352;BME280;70809;52.184;13.422;2023-11-21T04:05:37;100714.53;;;5.04;100.00
81352;BME280;70809;52.184;13.422;2023-11-21T04:06:41;100710.81;;;4.97;100.00
81352;BME280;70809;52.184;13.422;2023-11-21T04:07:43;100713.44;;;4.97;100.00
81352;BME280;70809;52.184;13.422;2023-11-21T04:08:45;100710.09;;;5.01;100.00
81352;BME280;70809;52.184;13.422;2023-11-21T04:09:50;100708.75;;;5.13;100.00
81352;BME280;70809;52.184;13.422;2023-11-21T04:10:52;100717.75;;;5.21;100.00
81352;BME280;70809;52.184;13.422;2023-11-21T04:11:55;100718.38;;;5.14;100.00
81352;BME280;70809;52.184;13.422;2023-11-21T04:12:56;100717.63;;;5.16;100.00
81352;BME280;70809;52.184;13.422;2023-11-21T04:13:59;100721.94;;;5.16;100.00
81352;BME280;70809;52.184;13.422;2023-11-21T04:15:01;100717.44;;;5.12;100.00
81352;BME280;70809;52.184;13.422;2023-11-21T04:16:03;100721.84;;;5.13;100.00
81352;BME280;70809;52.184;13.422;2023-11-21T04:17:09;100726.66;;;5.00;100.00
81352;BME280;70809;52.184;13.422;2023-11-21T04:18:10;100736.28;;;5.01;100.00
81352;BME280;70809;52.184;13.422;2023-11-21T04:19:12;100724.06;;;5.02;100.00
81352;BME280;70809;52.184;13.422;2023-11-21T04:20:14;100734.81;;;5.10;100.00
81352;BME280;70809;52.184;13.422;2023-11-21T04:21:16;100735.81;;;5.13;100.00
81352;BME280;70809;52.184;13.422;2023-11-21T04:22:18;100733.53;;;5.22;100.00
81352;BME280;70809;52.184;13.422;2023-11-21T04:23:21;100737.28;;;5.05;100.00
81352;BME280;70809;52.184;13.422;2023-11-21T04:24:23;100738.19;;;5.05;100.00
81352;BME280;70809;52.184;13.422;2023-11-21T04:25:25;100733.81;;;5.06;100.00
81352;BME280;70809;52.184;13.422;2023-11-21T04:26:27;100746.63;;;4.98;100.00
81352;BME280;70809;52.184;13.422;2023-11-21T04:27:30;100739.81;;;5.03;100.00
81352;BME280;70809;52.184;13.422;2023-11-21T04:28:32;100742.75;;;5.11;100.00
81352;BME280;70809;52.184;13.422;2023-11-21T04:29:34;100735.03;;;5.16;100.00
81352;BME280;70809;52.184;13.422;2023-11-21T04:30:36;100743.72;;;5.15;100.00
81352;BME280;70809;52.184;13.422;2023-11-21T04:31:38;100739.53;;;5.20;100.00
81352;BME280;70809;52.184;13.422;2023-11-21T04:32:40;100749.34;;;5.25;100.00
81352;BME280;70809;52.184;13.422;2023-11-21T04:33:42;100747.59;;;5.26;100.00
81352;BME280;70809;52.184;13.422;2023-11-21T04:34:44;100750.44;;;5.32;100.00
81352;BME280;70809;52.184;13.422;2023-11-21T04:35:46;100754.97;;;5.36;100.00
81352;BME280;70809;52.184;13.422;2023-11-21T04:36:47;100762.09;;;5.40;99.99
81352;BME280;70809;52.184;13.422;2023-11-21T04:37:49;100762.09;;;5.40;100.00
81352;BME280;70809;52.184;13.422;2023-11-21T04:38:51;100761.28;;;5.43;100.00
81352;BME280;70809;52.184;13.422;2023-11-21T04:39:53;100762.31;;;5.46;100.00
81352;BME280;70809;52.184;13.422;2023-11-21T04:40:55;100761.84;;;5.58;100.00
81352;BME280;70809;52.184;13.422;2023-11-21T04:41:57;100766.09;;;5.56;99.03
81352;BME280;70809;52.184;13.422;2023-11-21T04:43:00;100758.31;;;5.57;99.45
81352;BME280;70809;52.184;13.422;2023-11-21T04:44:02;100766.88;;;5.52;98.70
81352;BME280;70809;52.184;13.422;2023-11-21T04:45:05;100763.19;;;5.47;98.80
81352;BME280;70809;52.184;13.422;2023-11-21T04:46:06;100767.94;;;5.33;99.07
81352;BME280;70809;52.184;13.422;2023-11-21T04:47:08;100772.06;;;5.26;98.91
81352;BME280;70809;52.184;13.422;2023-11-21T04:48:10;100762.66;;;5.31;99.65
81352;BME280;70809;52.184;13.422;2023-11-21T04:49:12;100764.50;;;5.34;99.23
81352;BME280;70809;52.184;13.422;2023-11-21T04:50:17;100771.09;;;5.48;99.62
81352;BME280;70809;52.184;13.422;2023-11-21T04:51:19;100771.31;;;5.54;99.08
81352;BME280;70809;52.184;13.422;2023-11-21T04:52:21;100774.44;;;5.44;98.14
81352;BME280;70809;52.184;13.422;2023-11-21T04:53:24;100776.03;;;5.39;98.58
81352;BME280;70809;52.184;13.422;2023-11-21T04:54:26;100767.38;;;5.42;98.35
81352;BME280;70809;52.184;13.422;2023-11-21T04:55:29;100777.81;;;5.40;98.76
81352;BME280;70809;52.184;13.422;2023-11-21T04:56:31;100774.13;;;5.35;98.92
81352;BME280;70809;52.184;13.422;2023-11-21T04:57:33;100773.47;;;5.41;98.51
81352;BME280;70809;52.184;13.422;2023-11-21T04:58:36;100776.47;;;5.51;98.59
81352;BME280;70809;52.184;13.422;2023-11-21T04:59:38;100780.00;;;5.53;98.40
81352;BME280;70809;52.184;13.422;2023-11-21T05:00:39;100784.34;;;5.53;97.74
81352;BME280;70809;52.184;13.422;2023-11-21T05:01:41;100778.31;;;5.55;97.57
81352;BME280;70809;52.184;13.422;2023-11-21T05:02:47;100775.56;;;5.51;97.41
81352;BME280;70809;52.184;13.422;2023-11-21T05:03:51;100788.41;;;5.45;97.34
81352;BME280;70809;52.184;13.422;2023-11-21T05:04:56;100784.81;;;5.41;98.00
81352;BME280;70809;52.184;13.422;2023-11-21T05:05:59;100784.88;;;5.43;97.93
81352;BME280;70809;52.184;13.422;2023-11-21T05:07:01;100775.78;;;5.33;97.54
81352;BME280;70809;52.184;13.422;2023-11-21T05:08:04;100781.81;;;5.30;97.61
81352;BME280;70809;52.184;13.422;2023-11-21T05:09:09;100791.03;;;5.19;97.31
81352;BME280;70809;52.184;13.422;2023-11-21T05:10:16;100777.72;;;5.13;98.22
81352;BME280;70809;52.184;13.422;2023-11-21T05:11:24;100793.69;;;5.21;98.70
81352;BME280;70809;52.184;13.422;2023-11-21T05:12:27;100788.56;;;5.24;98.44
81352;BME280;70809;52.184;13.422;2023-11-21T05:13:29;100789.19;;;5.17;98.14
81352;BME280;70809;52.184;13.422;2023-11-21T05:14:32;100781.41;;;5.18;98.14
81352;BME280;70809;52.184;13.422;2023-11-21T05:15:34;100783.59;;;5.31;97.87
81352;BME280;70809;52.184;13.422;2023-11-21T05:16:36;100785.06;;;5.23;97.58
81352;BME280;70809;52.184;13.422;2023-11-21T05:17:40;100794.66;;;5.23;97.13
81352;BME280;70809;52.184;13.422;2023-11-21T05:18:42;100797.38;;;5.26;97.14
81352;BME280;70809;52.184;13.422;2023-11-21T05:19:46;100788.75;;;5.28;97.11
81352;BME280;70809;52.184;13.422;2023-11-21T05:20:54;100800.56;;;5.17;96.77
81352;BME280;70809;52.184;13.422;2023-11-21T05:21:56;100803.34;;;5.22;97.10